createdAt,value
2024-05-09T00:00:30.021Z,49.63
2024-05-09T00:03:01.706Z,49.96
2024-05-09T00:05:28.219Z,49.50
2024-05-09T00:07:54.777Z,49.74
2024-05-09T00:10:28.852Z,49.52
2024-05-09T00:13:01.547Z,49.41
2024-05-09T00:15:28.016Z,49.64
2024-05-09T00:17:54.776Z,49.85
2024-05-09T00:20:28.086Z,50.30
2024-05-09T00:22:59.933Z,50.75
2024-05-09T00:25:26.440Z,50.70
2024-05-09T00:27:52.913Z,50.44
2024-05-09T00:30:27.937Z,50.96
2024-05-09T00:32:59.776Z,51.00
2024-05-09T00:35:26.416Z,50.63
2024-05-09T00:37:52.975Z,51.07
2024-05-09T00:40:27.257Z,50.84
2024-05-09T00:43:02.042Z,51.12
2024-05-09T00:45:28.498Z,50.99
2024-05-09T00:47:55.044Z,51.23
2024-05-09T00:50:29.616Z,50.92
2024-05-09T00:53:01.829Z,51.31
2024-05-09T00:55:28.379Z,51.57
2024-05-09T00:57:54.832Z,51.57
2024-05-09T01:00:27.341Z,51.79
2024-05-09T01:03:02.225Z,51.35
2024-05-09T01:05:28.870Z,51.52
2024-05-09T01:07:55.404Z,51.19
2024-05-09T01:10:28.010Z,51.12
2024-05-09T01:13:00.242Z,50.92
2024-05-09T01:15:26.735Z,51.11
2024-05-09T01:17:53.357Z,51.03
2024-05-09T01:20:27.201Z,51.00
2024-05-09T01:22:58.618Z,51.02
2024-05-09T01:25:25.091Z,50.97
2024-05-09T01:27:51.556Z,51.38
2024-05-09T01:30:24.291Z,51.08
2024-05-09T01:32:54.430Z,51.28
2024-05-09T01:35:21.258Z,51.28
2024-05-09T01:37:47.807Z,51.51
2024-05-09T01:40:18.614Z,51.74
2024-05-09T01:42:51.390Z,51.54
2024-05-09T01:45:17.870Z,51.30
2024-05-09T01:47:44.605Z,51.21
2024-05-09T01:50:11.503Z,51.46
2024-05-09T01:52:39.791Z,51.00
2024-05-09T01:55:06.853Z,51.24
2024-05-09T01:57:33.537Z,51.38
2024-05-09T01:59:59.988Z,51.59
2024-05-09T02:02:26.500Z,51.68
2024-05-09T02:04:53.141Z,51.66
2024-05-09T02:07:19.635Z,51.75
2024-05-09T02:09:46.094Z,51.81
2024-05-09T02:12:12.830Z,51.95
2024-05-09T02:14:39.466Z,51.98
2024-05-09T02:17:06.028Z,52.05
2024-05-09T02:19:32.987Z,52.41
2024-05-09T02:21:59.569Z,51.97
2024-05-09T02:24:26.031Z,52.09
2024-05-09T02:26:52.549Z,52.08
2024-05-09T02:29:19.167Z,52.32
2024-05-09T02:31:45.717Z,52.43
2024-05-09T02:34:12.416Z,52.02
2024-05-09T02:36:38.919Z,52.05
2024-05-09T02:39:05.377Z,52.31
2024-05-09T02:41:31.924Z,52.23
2024-05-09T02:43:58.461Z,52.41
2024-05-09T02:46:24.932Z,52.53
2024-05-09T02:48:51.496Z,52.34
2024-05-09T02:51:18.065Z,52.81
2024-05-09T02:53:44.587Z,52.65
2024-05-09T02:56:11.189Z,52.71
2024-05-09T02:58:37.673Z,52.54
2024-05-09T03:01:04.211Z,52.67
2024-05-09T03:03:31.048Z,52.44
2024-05-09T03:05:57.927Z,52.80
2024-05-09T03:08:24.417Z,52.56
2024-05-09T03:10:50.928Z,52.13
2024-05-09T03:13:17.431Z,52.34
2024-05-09T03:15:44.005Z,52.10
2024-05-09T03:18:10.886Z,52.39
2024-05-09T03:20:37.750Z,52.42
2024-05-09T03:23:04.559Z,52.66
2024-05-09T03:25:31.413Z,52.35
2024-05-09T03:27:57.925Z,52.21
2024-05-09T03:30:31.172Z,52.42
2024-05-09T03:33:06.254Z,52.34
2024-05-09T03:35:32.856Z,52.69
2024-05-09T03:37:59.396Z,52.29
2024-05-09T03:40:29.040Z,52.44
2024-05-09T03:42:57.141Z,52.21
2024-05-09T03:45:23.599Z,52.49
2024-05-09T03:47:50.294Z,52.64
2024-05-09T03:50:22.768Z,52.95
2024-05-09T03:52:56.231Z,52.99
2024-05-09T03:55:22.708Z,52.50
2024-05-09T03:57:49.178Z,52.61
2024-05-09T04:00:22.092Z,52.15
2024-05-09T04:02:53.170Z,52.52
2024-05-09T04:05:19.858Z,52.38
2024-05-09T04:07:46.374Z,52.94
2024-05-09T04:10:21.074Z,52.88
2024-05-09T04:12:54.333Z,52.66
2024-05-09T04:15:20.822Z,52.76
2024-05-09T04:17:47.430Z,52.63
2024-05-09T04:20:24.206Z,53.04
2024-05-09T04:22:59.746Z,52.80
2024-05-09T04:25:26.250Z,53.02
2024-05-09T04:27:52.711Z,53.26
2024-05-09T04:30:26.282Z,53.59
2024-05-09T04:33:01.472Z,53.10
2024-05-09T04:35:28.139Z,52.69
2024-05-09T04:37:54.773Z,53.08
2024-05-09T04:40:28.525Z,53.10
2024-05-09T04:42:59.986Z,52.77
2024-05-09T04:45:26.492Z,52.55
2024-05-09T04:47:53.213Z,52.42
2024-05-09T04:50:29.324Z,52.22
2024-05-09T04:53:02.139Z,52.09
2024-05-09T04:55:28.641Z,52.06
2024-05-09T04:57:55.134Z,52.25
2024-05-09T05:00:28.859Z,52.33
2024-05-09T05:03:02.061Z,52.27
2024-05-09T05:05:28.762Z,52.01
2024-05-09T05:07:55.326Z,52.18
2024-05-09T05:10:29.447Z,52.22
2024-05-09T05:13:01.750Z,52.01
2024-05-09T05:15:28.222Z,51.86
2024-05-09T05:17:54.797Z,51.85
2024-05-09T05:20:27.786Z,52.08
2024-05-09T05:22:59.594Z,52.09
2024-05-09T05:25:26.226Z,51.83
2024-05-09T05:27:52.718Z,51.53
2024-05-09T05:30:24.992Z,51.30
2024-05-09T05:32:55.414Z,51.73
2024-05-09T05:35:22.147Z,51.32
2024-05-09T05:37:48.640Z,51.51
2024-05-09T05:40:25.015Z,51.02
2024-05-09T05:42:58.730Z,51.60
2024-05-09T05:45:25.221Z,50.74
2024-05-09T05:47:51.818Z,50.67
2024-05-09T05:50:27.251Z,50.69
2024-05-09T05:52:59.446Z,50.67
2024-05-09T05:55:25.914Z,50.58
2024-05-09T05:57:52.393Z,50.05
2024-05-09T06:00:29.020Z,50.28
2024-05-09T06:03:01.663Z,49.85
2024-05-09T06:05:28.335Z,49.64
2024-05-09T06:07:54.851Z,50.29
2024-05-09T06:10:25.782Z,49.91
2024-05-09T06:12:56.686Z,49.42
2024-05-09T06:15:23.132Z,49.35
2024-05-09T06:17:49.711Z,49.29
2024-05-09T06:20:23.421Z,49.39
2024-05-09T06:22:54.053Z,48.68
2024-05-09T06:25:20.666Z,48.74
2024-05-09T06:27:47.134Z,48.59
2024-05-09T06:30:24.906Z,48.57
2024-05-09T06:32:56.208Z,47.88
2024-05-09T06:35:22.765Z,48.12
2024-05-09T06:37:49.303Z,47.97
2024-05-09T06:40:21.210Z,48.02
2024-05-09T06:42:51.753Z,48.55
2024-05-09T06:45:18.244Z,48.26
2024-05-09T06:47:44.852Z,48.32
2024-05-09T06:50:19.702Z,48.38
2024-05-09T06:52:50.203Z,48.53
2024-05-09T06:55:16.672Z,48.43
2024-05-09T06:57:43.264Z,49.12
2024-05-09T07:00:15.516Z,49.12
2024-05-09T07:02:45.539Z,48.74
2024-05-09T07:05:12.252Z,48.40
2024-05-09T07:07:38.806Z,48.39
2024-05-09T07:10:07.776Z,48.66
2024-05-09T07:12:36.417Z,47.84
2024-05-09T07:15:02.883Z,47.86
2024-05-09T07:17:29.467Z,47.43
2024-05-09T07:19:56.237Z,48.16
2024-05-09T07:22:22.704Z,47.74
2024-05-09T07:24:49.184Z,46.59
2024-05-09T07:27:15.721Z,45.91
2024-05-09T07:29:42.204Z,46.01
2024-05-09T07:32:08.744Z,45.93
2024-05-09T07:34:35.442Z,45.63
2024-05-09T07:37:02.016Z,45.47
2024-05-09T07:39:28.477Z,45.38
2024-05-09T07:41:55.046Z,46.18
2024-05-09T07:44:21.558Z,45.21
2024-05-09T07:47:48.679Z,45.82
2024-05-09T07:53:27.130Z,46.57
2024-05-09T07:54:50.544Z,44.39
2024-05-09T07:57:17.170Z,43.64
2024-05-09T07:59:43.732Z,43.44
2024-05-09T08:02:10.497Z,43.97
2024-05-09T08:04:37.194Z,43.83
2024-05-09T08:07:03.858Z,42.92
2024-05-09T08:09:30.400Z,42.86
2024-05-09T08:11:56.918Z,42.11
2024-05-09T08:14:23.438Z,42.36
2024-05-09T08:16:49.927Z,42.41
2024-05-09T08:19:16.482Z,42.49
2024-05-09T08:21:43.022Z,42.29
2024-05-09T08:24:09.549Z,42.70
2024-05-09T08:26:36.007Z,42.26
2024-05-09T08:29:02.487Z,40.86
2024-05-09T08:31:29.077Z,41.61
2024-05-09T08:33:55.798Z,41.61
2024-05-09T08:36:22.322Z,42.19
2024-05-09T08:38:48.788Z,43.11
2024-05-09T08:41:15.237Z,40.81
2024-05-09T08:43:42.149Z,39.26
2024-05-09T08:46:08.786Z,40.17
2024-05-09T08:48:35.535Z,40.81
2024-05-09T08:51:03.344Z,39.00
2024-05-09T08:53:29.868Z,40.01
2024-05-09T08:55:56.348Z,40.44
2024-05-09T08:58:22.836Z,39.66
2024-05-09T09:00:50.026Z,41.26
2024-05-09T09:03:16.722Z,39.35
2024-05-09T09:05:47.794Z,38.07
2024-05-09T09:08:14.319Z,38.73
2024-05-09T09:10:45.645Z,38.17
2024-05-09T09:13:12.603Z,38.95
2024-05-09T09:15:39.369Z,37.87
2024-05-09T09:18:07.329Z,37.96
2024-05-09T09:20:37.333Z,38.83
2024-05-09T09:23:04.227Z,38.55
2024-05-09T09:25:32.355Z,39.29
2024-05-09T09:27:59.363Z,38.71
2024-05-09T09:30:34.901Z,38.94
2024-05-09T09:33:04.719Z,39.86
2024-05-09T09:35:39.219Z,38.15
2024-05-09T09:38:05.726Z,39.11
2024-05-09T09:40:34.136Z,40.89
2024-05-09T09:43:02.688Z,40.40
2024-05-09T09:45:29.248Z,39.01
2024-05-09T09:47:55.876Z,40.67
2024-05-09T09:50:27.938Z,39.96
2024-05-09T09:53:00.815Z,41.77
2024-05-09T09:55:27.482Z,40.19
2024-05-09T09:57:54.047Z,41.98
2024-05-09T10:00:26.840Z,41.96
2024-05-09T10:02:57.124Z,42.06
2024-05-09T10:05:24.048Z,41.52
2024-05-09T10:07:50.748Z,40.84
2024-05-09T10:10:22.971Z,39.71
2024-05-09T10:12:54.308Z,41.36
2024-05-09T10:15:25.301Z,42.73
2024-05-09T10:17:51.852Z,44.34
2024-05-09T10:20:22.186Z,41.78
2024-05-09T10:22:54.208Z,39.88
2024-05-09T10:25:23.953Z,41.66
2024-05-09T10:27:50.671Z,39.91
2024-05-09T10:30:25.452Z,39.65
2024-05-09T10:32:56.085Z,36.48
2024-05-09T10:35:23.024Z,38.01
2024-05-09T10:37:49.737Z,38.74
2024-05-09T10:40:23.377Z,37.93
2024-05-09T10:42:55.462Z,36.90
2024-05-09T10:45:22.059Z,36.80
2024-05-09T10:47:48.677Z,36.76
2024-05-09T10:50:22.318Z,36.64
2024-05-09T10:52:54.790Z,38.25
2024-05-09T10:55:21.651Z,38.70
2024-05-09T10:57:48.501Z,36.85
2024-05-09T11:00:23.324Z,36.75
2024-05-09T11:02:56.756Z,37.17
2024-05-09T11:05:23.541Z,37.09
2024-05-09T11:07:50.685Z,35.52
2024-05-09T11:12:44.385Z,35.20
2024-05-09T11:15:11.936Z,36.13
2024-05-09T11:17:38.726Z,34.21
2024-05-09T11:20:13.358Z,35.41
2024-05-09T11:22:47.888Z,34.96
2024-05-09T11:25:17.174Z,34.33
2024-05-09T11:27:44.107Z,35.14
2024-05-09T11:30:14.333Z,33.70
2024-05-09T11:32:44.358Z,33.58
2024-05-09T11:35:10.967Z,32.69
2024-05-09T11:37:37.491Z,33.36
2024-05-09T11:40:06.938Z,33.74
2024-05-09T11:42:37.979Z,32.78
2024-05-09T11:45:06.876Z,32.83
2024-05-09T11:47:33.531Z,34.05
2024-05-09T11:50:00.621Z,34.53
2024-05-09T11:52:27.528Z,35.14
2024-05-09T11:54:55.126Z,34.25
2024-05-09T11:57:21.693Z,34.46
2024-05-09T11:59:48.209Z,36.60
2024-05-09T12:02:15.023Z,35.19
2024-05-09T12:04:41.750Z,34.24
2024-05-09T12:07:12.977Z,36.26
2024-05-09T12:09:39.646Z,34.93
2024-05-09T12:12:06.397Z,33.59
2024-05-09T12:14:33.255Z,33.04
2024-05-09T12:16:59.783Z,32.69
2024-05-09T12:19:28.649Z,34.29
2024-05-09T12:21:58.082Z,33.73
2024-05-09T12:24:24.618Z,33.54
2024-05-09T12:26:52.503Z,33.80
2024-05-09T12:29:20.046Z,32.95
2024-05-09T12:31:46.575Z,33.14
2024-05-09T12:34:15.857Z,32.06
2024-05-09T12:36:42.505Z,32.25
2024-05-09T12:39:16.675Z,32.13
2024-05-09T12:41:43.202Z,31.02
2024-05-09T12:44:09.827Z,30.65
2024-05-09T12:46:36.781Z,30.29
2024-05-09T12:49:03.510Z,30.66
2024-05-09T12:51:30.174Z,30.84
2024-05-09T12:53:56.740Z,30.74
2024-05-09T12:56:23.219Z,30.18
2024-05-09T12:58:52.450Z,28.79
2024-05-09T13:01:18.997Z,30.20
2024-05-09T13:03:45.789Z,31.64
2024-05-09T13:06:12.961Z,29.39
2024-05-09T13:08:39.461Z,29.73
2024-05-09T13:11:06.025Z,29.60
2024-05-09T13:13:32.576Z,29.04
2024-05-09T13:16:01.715Z,29.30
2024-05-09T13:18:31.717Z,28.80
2024-05-09T13:20:59.628Z,28.04
2024-05-09T13:23:26.968Z,27.50
2024-05-09T13:25:53.494Z,27.11
2024-05-09T13:28:21.998Z,25.62
2024-05-09T13:30:49.210Z,26.97
2024-05-09T13:33:15.982Z,25.07
2024-05-09T13:35:47.568Z,25.23
2024-05-09T13:38:17.184Z,26.26
2024-05-09T13:40:44.180Z,24.60
2024-05-09T13:43:11.433Z,26.06
2024-05-09T13:45:38.482Z,25.24
2024-05-09T13:48:07.518Z,25.78
2024-05-09T13:50:37.213Z,24.06
2024-05-09T13:53:03.827Z,25.09
2024-05-09T13:55:30.948Z,24.38
2024-05-09T13:58:09.669Z,24.61
2024-05-09T14:00:44.732Z,24.27
2024-05-09T14:03:15.907Z,25.21
2024-05-09T14:08:23.203Z,24.90
2024-05-09T14:10:52.432Z,23.15
2024-05-09T14:13:19.946Z,23.02
2024-05-09T14:15:47.096Z,23.52
2024-05-09T14:18:14.444Z,24.90
2024-05-09T14:20:41.434Z,24.16
2024-05-09T14:23:07.951Z,23.99
2024-05-09T14:25:37.694Z,23.17
2024-05-09T14:28:08.050Z,22.99
2024-05-09T14:30:37.727Z,23.41
2024-05-09T14:33:06.493Z,23.21
2024-05-09T14:35:36.279Z,23.43
2024-05-09T14:38:02.761Z,23.84
2024-05-09T14:40:39.285Z,23.88
2024-05-09T14:43:09.575Z,23.25
2024-05-09T14:45:37.000Z,23.84
2024-05-09T14:48:05.998Z,23.05
2024-05-09T14:50:37.140Z,22.91
2024-05-09T14:53:08.573Z,23.24
2024-05-09T14:55:37.214Z,22.81
2024-05-09T14:58:05.175Z,22.87
2024-05-09T15:00:36.255Z,23.86
2024-05-09T15:03:03.994Z,22.94
2024-05-09T15:05:31.655Z,23.35
2024-05-09T15:07:59.472Z,23.87
2024-05-09T15:10:33.830Z,23.52
2024-05-09T15:13:03.001Z,24.30
2024-05-09T15:15:30.152Z,23.34
2024-05-09T15:17:57.149Z,23.05
2024-05-09T15:20:31.298Z,22.42
2024-05-09T15:23:02.652Z,23.39
2024-05-09T15:25:29.819Z,23.82
2024-05-09T15:28:08.363Z,23.46
2024-05-09T15:30:35.407Z,23.81
2024-05-09T15:33:02.185Z,24.38
2024-05-09T15:35:29.716Z,23.82
2024-05-09T15:37:56.642Z,24.80
2024-05-09T15:40:31.679Z,23.70
2024-05-09T15:43:05.217Z,25.80
2024-05-09T15:45:32.387Z,24.42
2024-05-09T15:47:59.612Z,24.44
2024-05-09T15:50:36.056Z,25.15
2024-05-09T15:53:06.594Z,25.51
2024-05-09T15:55:34.356Z,26.16
2024-05-09T15:58:01.620Z,25.85
2024-05-09T16:00:36.084Z,25.82
2024-05-09T16:03:06.346Z,25.70
2024-05-09T16:05:33.103Z,26.20
2024-05-09T16:07:59.869Z,27.47
2024-05-09T16:10:32.303Z,27.19
2024-05-09T16:13:00.832Z,27.64
2024-05-09T16:15:27.602Z,28.27
2024-05-09T16:17:54.202Z,28.18
2024-05-09T16:20:33.445Z,28.71
2024-05-09T16:23:05.604Z,29.04
2024-05-09T16:25:32.390Z,29.60
2024-05-09T16:27:58.895Z,28.85
2024-05-09T16:30:33.825Z,29.24
2024-05-09T16:33:04.028Z,29.31
2024-05-09T16:35:33.890Z,29.91
2024-05-09T16:38:02.654Z,29.63
2024-05-09T16:40:36.603Z,29.92
2024-05-09T16:43:06.685Z,30.23
2024-05-09T16:45:33.846Z,31.26
2024-05-09T16:48:00.692Z,31.21
2024-05-09T16:50:32.509Z,31.19
2024-05-09T16:53:03.962Z,31.21
2024-05-09T16:55:34.019Z,31.17
2024-05-09T16:58:01.021Z,31.32
2024-05-09T17:00:39.165Z,31.33
2024-05-09T17:03:09.626Z,31.66
2024-05-09T17:05:37.138Z,31.93
2024-05-09T17:08:03.953Z,32.30
2024-05-09T17:10:33.730Z,32.51
2024-05-09T17:13:01.886Z,32.91
2024-05-09T17:15:30.780Z,32.63
2024-05-09T17:17:57.351Z,32.18
2024-05-09T17:20:31.367Z,32.48
2024-05-09T17:23:00.934Z,32.52
2024-05-09T17:25:27.743Z,31.98
2024-05-09T17:27:57.155Z,32.25
2024-05-09T17:30:29.332Z,33.44
2024-05-09T17:33:02.307Z,33.61
2024-05-09T17:35:29.018Z,32.86
2024-05-09T17:37:55.832Z,32.88
2024-05-09T17:40:30.957Z,33.24
2024-05-09T17:43:01.812Z,33.56
2024-05-09T17:45:29.895Z,33.86
2024-05-09T17:47:56.645Z,33.93
2024-05-09T17:50:30.848Z,33.68
2024-05-09T17:53:01.831Z,33.65
2024-05-09T17:55:31.124Z,33.79
2024-05-09T17:57:57.889Z,33.94
2024-05-09T18:00:34.164Z,34.76
2024-05-09T18:03:06.841Z,34.49
2024-05-09T18:05:33.804Z,34.68
2024-05-09T18:08:00.452Z,34.77
2024-05-09T18:10:34.823Z,34.76
2024-05-09T18:13:04.521Z,35.18
2024-05-09T18:15:31.882Z,35.34
2024-05-09T18:17:58.505Z,35.30
2024-05-09T18:20:36.096Z,35.38
2024-05-09T18:23:08.364Z,35.90
2024-05-09T18:25:35.240Z,35.85
2024-05-09T18:28:01.888Z,35.93
2024-05-09T18:30:34.371Z,35.85
2024-05-09T18:33:03.009Z,35.84
2024-05-09T18:35:29.985Z,36.28
2024-05-09T18:37:59.900Z,36.28
2024-05-09T18:40:33.415Z,36.56
2024-05-09T18:43:03.122Z,36.38
2024-05-09T18:45:32.763Z,36.44
2024-05-09T18:47:59.460Z,36.97
2024-05-09T18:50:34.847Z,36.95
2024-05-09T18:53:04.777Z,36.91
2024-05-09T18:55:31.307Z,37.12
2024-05-09T18:57:58.144Z,37.07
2024-05-09T19:00:33.453Z,37.48
2024-05-09T19:03:03.839Z,37.08
2024-05-09T19:05:30.833Z,37.56
2024-05-09T19:07:57.485Z,37.57
2024-05-09T19:10:28.799Z,37.71
2024-05-09T19:13:00.176Z,37.67
2024-05-09T19:15:26.880Z,37.84
2024-05-09T19:17:53.449Z,37.72
2024-05-09T19:20:25.533Z,37.74
2024-05-09T19:22:58.458Z,38.27
2024-05-09T19:25:25.277Z,38.24
2024-05-09T19:27:51.862Z,38.11
2024-05-09T19:30:28.927Z,38.30
2024-05-09T19:33:02.653Z,38.75
2024-05-09T19:35:29.332Z,38.80
2024-05-09T19:37:55.779Z,38.93
2024-05-09T19:40:28.979Z,38.75
2024-05-09T19:42:58.691Z,38.72
2024-05-09T19:45:25.335Z,39.12
2024-05-09T19:47:52.925Z,39.12
2024-05-09T19:50:26.390Z,39.12
2024-05-09T19:52:59.053Z,39.12
2024-05-09T19:55:25.559Z,39.42
2024-05-09T19:57:52.062Z,39.72
2024-05-09T20:00:25.954Z,39.60
2024-05-09T20:02:55.942Z,39.58
2024-05-09T20:05:23.027Z,39.87
2024-05-09T20:07:49.700Z,39.42
2024-05-09T20:10:23.459Z,39.92
2024-05-09T20:12:53.201Z,40.02
2024-05-09T20:15:19.823Z,39.90
2024-05-09T20:17:46.721Z,39.97
2024-05-09T20:20:23.552Z,39.85
2024-05-09T20:22:58.433Z,39.92
2024-05-09T20:25:24.950Z,40.22
2024-05-09T20:27:51.485Z,40.66
2024-05-09T20:30:25.481Z,40.38
2024-05-09T20:32:58.080Z,40.57
2024-05-09T20:35:25.087Z,40.24
2024-05-09T20:37:51.644Z,40.39
2024-05-09T20:40:25.789Z,40.46
2024-05-09T20:42:58.592Z,40.60
2024-05-09T20:45:25.178Z,40.88
2024-05-09T20:47:51.791Z,40.84
2024-05-09T20:50:27.984Z,40.96
2024-05-09T20:53:02.791Z,41.17
2024-05-09T20:55:29.415Z,41.27
2024-05-09T20:57:55.990Z,41.35
2024-05-09T21:00:29.937Z,41.22
2024-05-09T21:03:04.359Z,41.47
2024-05-09T21:05:31.451Z,41.63
2024-05-09T21:07:58.331Z,41.89
2024-05-09T21:10:29.678Z,41.68
2024-05-09T21:12:58.266Z,41.67
2024-05-09T21:15:27.387Z,41.58
2024-05-09T21:20:34.602Z,41.90
2024-05-09T21:23:02.123Z,42.16
2024-05-09T21:25:29.043Z,41.96
2024-05-09T21:27:55.752Z,41.80
2024-05-09T21:30:32.060Z,42.78
2024-05-09T21:33:06.993Z,42.19
2024-05-09T21:35:33.589Z,42.76
2024-05-09T21:38:00.643Z,42.97
2024-05-09T21:40:33.950Z,42.33
2024-05-09T21:43:02.443Z,43.10
2024-05-09T21:45:29.671Z,43.07
2024-05-09T21:47:56.252Z,43.71
2024-05-09T21:50:28.538Z,44.00
2024-05-09T21:53:02.818Z,44.13
2024-05-09T21:55:29.321Z,44.46
2024-05-09T21:57:55.866Z,44.22
2024-05-09T22:00:29.166Z,44.65
2024-05-09T22:03:02.419Z,44.86
2024-05-09T22:05:29.489Z,45.22
2024-05-09T22:07:56.274Z,45.10
2024-05-09T22:10:27.059Z,45.09
2024-05-09T22:12:59.629Z,45.29
2024-05-09T22:15:26.130Z,45.04
2024-05-09T22:17:52.793Z,45.14
2024-05-09T22:20:28.606Z,45.50
2024-05-09T22:23:01.074Z,45.11
2024-05-09T22:25:30.225Z,45.59
2024-05-09T22:27:57.284Z,45.77
2024-05-09T22:30:31.130Z,45.74
2024-05-09T22:33:01.535Z,45.82
2024-05-09T22:35:28.054Z,45.82
2024-05-09T22:37:54.509Z,46.03
2024-05-09T22:40:29.414Z,45.85
2024-05-09T22:43:05.065Z,45.86
2024-05-09T22:45:31.626Z,46.22
2024-05-09T22:47:58.286Z,46.19
2024-05-09T22:50:27.063Z,45.97
2024-05-09T22:52:58.814Z,46.52
2024-05-09T22:55:25.281Z,46.59
2024-05-09T22:57:51.890Z,46.87
2024-05-09T23:00:21.788Z,46.74
2024-05-09T23:02:52.840Z,46.65
2024-05-09T23:05:19.547Z,46.79
2024-05-09T23:07:46.090Z,46.70
2024-05-09T23:10:17.354Z,46.96
2024-05-09T23:12:51.274Z,46.89
2024-05-09T23:15:17.743Z,46.93
2024-05-09T23:17:44.448Z,47.49
2024-05-09T23:20:11.747Z,47.27
2024-05-09T23:22:40.939Z,47.51
2024-05-09T23:25:07.443Z,47.44
2024-05-09T23:27:33.983Z,47.59
2024-05-09T23:30:00.511Z,47.78
2024-05-09T23:32:27.075Z,47.92
2024-05-09T23:34:53.628Z,48.11
2024-05-09T23:37:20.189Z,48.09
2024-05-09T23:39:46.710Z,48.11
2024-05-09T23:42:13.228Z,48.15
2024-05-09T23:44:39.722Z,48.17
2024-05-09T23:47:08.459Z,48.09
2024-05-09T23:49:36.664Z,48.21
2024-05-09T23:52:03.297Z,48.02
2024-05-09T23:54:29.792Z,48.16
2024-05-09T23:56:56.259Z,47.96
2024-05-09T23:59:22.802Z,47.99
